EGHI Airport Information

Runway Information
Runway 02 Length 5653 ft width 121 ft
Elevation 31 ft Threshold 240 ft Heading 19
Runway 20 Length 5653 ft Width 121 ft
Elevation 44 ft Threshold 145 ft Heading 199
Airport Frequencies
Type APP Name APP Frequency 128.85 MHZ
Type ATIS Name ATIS Frequency 113.35 MHZ
Type GND Name GND Frequency 121.775 MHZ
Type OPS Name OPS Frequency 130.65 MHZ
Type TWR Name TWR Frequency 118.2 MHZ
Airport Navaids
Type NDB Name Southampton Frequency 392 KHZ
Type VOR-DME Name Southampton Frequency 113350 KHZ
Airport Weather Information & NOTAM
ADDS - METARS form results

(0758 UTC 23 September 2021)
Data provider http://aviationweather.gov/metar/data/
 
METAR text: EGHI 230750Z 25005KT 9999 SCT015 14/12 Q1022
Conditions at: EGHI (SOUTHAMPTON WX C, GB) observed 0750 UTC 23 September 2021
Temperature: 14.0°C (57°F)
Dewpoint: 12.0°C (54°F) [RH = 88%]
Pressure (altimeter): 30.18 inches Hg (1022.0 mb)
Winds: from the WSW (250 degrees) at 6 MPH (5 knots; 2.6 m/s)
Visibility: 6 or more miles (10+ km)
Ceiling: at least 12,000 feet AGL
Clouds: scattered clouds at 1500 feet AGL
Weather: no significant weather observed at this time

METAR text: EGHI 230720Z 23005KT 200V260 9999 FEW015 14/11 Q1022
Conditions at: EGHI (SOUTHAMPTON WX C, GB) observed 0720 UTC 23 September 2021
Temperature: 14.0°C (57°F)
Dewpoint: 11.0°C (52°F) [RH = 82%]
Pressure (altimeter): 30.18 inches Hg (1022.0 mb)
Winds: from the SW (230 degrees) at 6 MPH (5 knots; 2.6 m/s)
Visibility: 6 or more miles (10+ km)
Ceiling: at least 12,000 feet AGL
Clouds: few clouds at 1500 feet AGL
Weather: no significant weather observed at this time

Forecast for: EGHI (SOUTHAMPTON WX C, GB)
Text: TAF EGHI 230524Z 2306/2315 25007KT 9999 FEW025
Forecast period: 0600 to 1500 UTC 23 September 2021
Forecast type: FROM: standard forecast or significant change
Winds: from the WSW (250 degrees) at 8 MPH (7 knots; 3.6 m/s)
Visibility: 6 or more miles (10+ km)
Ceiling: at least 12,000 feet AGL
Clouds: few clouds at 2500 feet AGL
Weather: no significant weather forecast for this period
Text: PROB30
Forecast period: 0600 to 0800 UTC 23 September 2021
Forecast type: TEMPORARY: The following changes expected for less than half the time period
Visibility: 3 miles (5 km)
Ceiling: unknown
Clouds: missing
Weather: BR  (mist)
Text: TEMPO 2306/2308 5000 BR
Forecast period: 0800 to 1500 UTC 23 September 2021
Forecast type: TEMPORARY: The following changes expected for less than half the time period
Visibility: missing
Ceiling: 1400 feet AGL
Clouds: broken clouds at 1400 feet AGL
Weather: no significant weather forecast for this period